sensor_id;sensor_type;location;lat;lon;timestamp;pressure;altitude;pressure_sealevel;temperature;humidity
51259;BME280;37327;54.254;18.504;2024-03-02T00:03:03;100557.84;;;6.90;100.00
51259;BME280;37327;54.254;18.504;2024-03-02T00:06:25;100558.86;;;6.89;100.00
51259;BME280;37327;54.254;18.504;2024-03-02T00:10:20;100557.16;;;6.88;100.00
51259;BME280;37327;54.254;18.504;2024-03-02T00:13:38;100546.57;;;6.87;100.00
51259;BME280;37327;54.254;18.504;2024-03-02T00:17:01;100549.41;;;6.85;100.00
51259;BME280;37327;54.254;18.504;2024-03-02T00:20:50;100546.91;;;6.84;100.00
51259;BME280;37327;54.254;18.504;2024-03-02T00:27:42;100553.26;;;6.83;100.00
51259;BME280;37327;54.254;18.504;2024-03-02T00:31:31;100553.59;;;6.80;100.00
51259;BME280;37327;54.254;18.504;2024-03-02T00:34:54;100554.57;;;6.79;100.00
51259;BME280;37327;54.254;18.504;2024-03-02T00:38:17;100549.21;;;6.79;100.00
51259;BME280;37327;54.254;18.504;2024-03-02T00:42:05;100538.77;;;6.76;100.00
51259;BME280;37327;54.254;18.504;2024-03-02T00:45:28;100529.73;;;6.77;100.00
51259;BME280;37327;54.254;18.504;2024-03-02T00:48:56;100542.47;;;6.75;100.00
51259;BME280;37327;54.254;18.504;2024-03-02T00:52:44;100535.41;;;6.73;100.00
51259;BME280;37327;54.254;18.504;2024-03-02T00:56:09;100526.37;;;6.75;100.00
51259;BME280;37327;54.254;18.504;2024-03-02T00:59:37;100534.72;;;6.71;100.00
51259;BME280;37327;54.254;18.504;2024-03-02T01:03:25;100526.66;;;6.71;100.00
51259;BME280;37327;54.254;18.504;2024-03-02T01:06:47;100524.67;;;6.73;100.00
51259;BME280;37327;54.254;18.504;2024-03-02T01:10:11;100518.48;;;6.73;100.00
51259;BME280;37327;54.254;18.504;2024-03-02T01:13:58;100526.52;;;6.73;100.00
51259;BME280;37327;54.254;18.504;2024-03-02T01:17:20;100524.67;;;6.73;100.00
51259;BME280;37327;54.254;18.504;2024-03-02T01:20:42;100535.25;;;6.75;100.00
51259;BME280;37327;54.254;18.504;2024-03-02T01:24:30;100521.84;;;6.75;100.00
51259;BME280;37327;54.254;18.504;2024-03-02T01:27:54;100515.64;;;6.75;100.00
51259;BME280;37327;54.254;18.504;2024-03-02T01:31:16;100518.18;;;6.76;100.00
51259;BME280;37327;54.254;18.504;2024-03-02T01:35:04;100519.48;;;6.72;100.00
51259;BME280;37327;54.254;18.504;2024-03-02T01:38:26;100517.63;;;6.72;100.00
51259;BME280;37327;54.254;18.504;2024-03-02T01:41:50;100515.94;;;6.71;100.00
51259;BME280;37327;54.254;18.504;2024-03-02T01:45:38;100517.63;;;6.72;100.00
51259;BME280;37327;54.254;18.504;2024-03-02T01:49:00;100514.95;;;6.72;100.00
51259;BME280;37327;54.254;18.504;2024-03-02T01:52:23;100511.43;;;6.72;100.00
51259;BME280;37327;54.254;18.504;2024-03-02T01:56:10;100508.91;;;6.70;100.00
51259;BME280;37327;54.254;18.504;2024-03-02T01:59:32;100513.44;;;6.70;100.00
51259;BME280;37327;54.254;18.504;2024-03-02T02:02:55;100510.90;;;6.68;100.00
51259;BME280;37327;54.254;18.504;2024-03-02T02:06:47;100503.98;;;6.66;100.00
51259;BME280;37327;54.254;18.504;2024-03-02T02:10:15;100500.32;;;6.67;100.00
51259;BME280;37327;54.254;18.504;2024-03-02T02:13:33;100518.27;;;6.66;100.00
51259;BME280;37327;54.254;18.504;2024-03-02T02:17:22;100509.53;;;6.64;100.00
51259;BME280;37327;54.254;18.504;2024-03-02T02:20:44;100520.27;;;6.64;100.00
51259;BME280;37327;54.254;18.504;2024-03-02T02:24:07;100517.58;;;6.64;100.00
51259;BME280;37327;54.254;18.504;2024-03-02T02:27:55;100517.58;;;6.64;100.00
51259;BME280;37327;54.254;18.504;2024-03-02T02:31:18;100518.57;;;6.63;100.00
51259;BME280;37327;54.254;18.504;2024-03-02T02:34:40;100512.37;;;6.63;100.00
51259;BME280;37327;54.254;18.504;2024-03-02T02:38:28;100505.30;;;6.62;100.00
51259;BME280;37327;54.254;18.504;2024-03-02T02:41:50;100497.25;;;6.62;100.00
51259;BME280;37327;54.254;18.504;2024-03-02T02:45:12;100502.62;;;6.62;100.00
51259;BME280;37327;54.254;18.504;2024-03-02T02:49:00;100498.27;;;6.61;100.00
51259;BME280;37327;54.254;18.504;2024-03-02T02:52:22;100497.25;;;6.62;100.00
51259;BME280;37327;54.254;18.504;2024-03-02T02:55:44;100501.78;;;6.61;100.00
51259;BME280;37327;54.254;18.504;2024-03-02T02:59:32;100492.23;;;6.59;100.00
51259;BME280;37327;54.254;18.504;2024-03-02T03:02:53;100499.11;;;6.61;100.00
51259;BME280;37327;54.254;18.504;2024-03-02T03:06:16;100485.00;;;6.59;100.00
51259;BME280;37327;54.254;18.504;2024-03-02T03:10:04;100488.70;;;6.58;100.00
51259;BME280;37327;54.254;18.504;2024-03-02T03:13:27;100493.20;;;6.58;100.00
51259;BME280;37327;54.254;18.504;2024-03-02T03:16:49;100494.07;;;6.58;100.00
51259;BME280;37327;54.254;18.504;2024-03-02T03:20:37;100481.64;;;6.57;100.00
51259;BME280;37327;54.254;18.504;2024-03-02T03:24:00;100476.13;;;6.59;100.00
51259;BME280;37327;54.254;18.504;2024-03-02T03:27:22;100474.59;;;6.56;100.00
51259;BME280;37327;54.254;18.504;2024-03-02T03:31:09;100472.08;;;6.55;100.00
51259;BME280;37327;54.254;18.504;2024-03-02T03:34:32;100472.91;;;6.55;100.00
51259;BME280;37327;54.254;18.504;2024-03-02T03:37:54;100467.84;;;6.52;100.00
51259;BME280;37327;54.254;18.504;2024-03-02T03:41:43;100466.33;;;6.49;100.00
51259;BME280;37327;54.254;18.504;2024-03-02T03:45:06;100465.50;;;6.49;100.00
51259;BME280;37327;54.254;18.504;2024-03-02T03:48:28;100468.18;;;6.49;100.00
51259;BME280;37327;54.254;18.504;2024-03-02T03:52:17;100464.81;;;6.47;100.00
51259;BME280;37327;54.254;18.504;2024-03-02T03:55:39;100487.24;;;6.46;100.00
51259;BME280;37327;54.254;18.504;2024-03-02T03:59:01;100495.45;;;6.44;100.00
51259;BME280;37327;54.254;18.504;2024-03-02T04:02:49;100495.62;;;6.43;100.00
51259;BME280;37327;54.254;18.504;2024-03-02T04:06:11;100503.48;;;6.44;100.00
51259;BME280;37327;54.254;18.504;2024-03-02T04:09:35;100497.29;;;6.44;100.00
51259;BME280;37327;54.254;18.504;2024-03-02T04:13:22;100494.94;;;6.41;100.00
51259;BME280;37327;54.254;18.504;2024-03-02T04:16:44;100496.94;;;6.39;100.00
51259;BME280;37327;54.254;18.504;2024-03-02T04:20:06;100510.34;;;6.39;100.00
51259;BME280;37327;54.254;18.504;2024-03-02T04:23:54;100500.45;;;6.39;100.00
51259;BME280;37327;54.254;18.504;2024-03-02T04:27:20;100501.97;;;6.42;100.00
51259;BME280;37327;54.254;18.504;2024-03-02T04:30:42;100502.98;;;6.41;100.00
51259;BME280;37327;54.254;18.504;2024-03-02T04:34:29;100506.64;;;6.40;100.00
51259;BME280;37327;54.254;18.504;2024-03-02T04:37:51;100510.34;;;6.39;100.00
51259;BME280;37327;54.254;18.504;2024-03-02T04:41:13;100511.32;;;6.38;100.00
51259;BME280;37327;54.254;18.504;2024-03-02T04:45:01;100504.44;;;6.35;100.00
51259;BME280;37327;54.254;18.504;2024-03-02T04:48:23;100498.92;;;6.37;100.00
51259;BME280;37327;54.254;18.504;2024-03-02T04:51:45;100497.91;;;6.38;100.00
51259;BME280;37327;54.254;18.504;2024-03-02T04:55:33;100498.92;;;6.37;100.00
51259;BME280;37327;54.254;18.504;2024-03-02T04:59:06;100490.02;;;6.36;100.00
51259;BME280;37327;54.254;18.504;2024-03-02T05:02:55;100488.20;;;6.37;100.00
51259;BME280;37327;54.254;18.504;2024-03-02T05:06:17;100492.85;;;6.35;100.00
51259;BME280;37327;54.254;18.504;2024-03-02T05:09:43;100496.55;;;6.33;100.00
51259;BME280;37327;54.254;18.504;2024-03-02T05:13:31;100491.17;;;6.33;100.00
51259;BME280;37327;54.254;18.504;2024-03-02T05:16:52;100494.55;;;6.36;100.00
51259;BME280;37327;54.254;18.504;2024-03-02T05:20:14;100498.21;;;6.35;100.00
51259;BME280;37327;54.254;18.504;2024-03-02T05:24:04;100501.43;;;6.38;100.00
51259;BME280;37327;54.254;18.504;2024-03-02T05:27:28;100494.55;;;6.36;100.00
51259;BME280;37327;54.254;18.504;2024-03-02T05:30:50;100502.74;;;6.34;100.00
51259;BME280;37327;54.254;18.504;2024-03-02T05:34:37;100511.79;;;6.33;100.00
51259;BME280;37327;54.254;18.504;2024-03-02T05:37:59;100510.93;;;6.32;100.00
51259;BME280;37327;54.254;18.504;2024-03-02T05:41:21;100521.51;;;6.34;100.00
51259;BME280;37327;54.254;18.504;2024-03-02T05:45:09;100521.51;;;6.34;100.00
51259;BME280;37327;54.254;18.504;2024-03-02T05:48:31;100532.56;;;6.31;100.00
51259;BME280;37327;54.254;18.504;2024-03-02T05:51:53;100533.79;;;6.37;100.00
51259;BME280;37327;54.254;18.504;2024-03-02T05:55:40;100531.25;;;6.35;100.00
51259;BME280;37327;54.254;18.504;2024-03-02T05:59:02;100535.76;;;6.35;100.00
51259;BME280;37327;54.254;18.504;2024-03-02T06:03:02;100539.15;;;6.37;100.00
51259;BME280;37327;54.254;18.504;2024-03-02T06:06:25;100540.13;;;6.36;100.00
51259;BME280;37327;54.254;18.504;2024-03-02T06:09:47;100535.59;;;6.36;100.00
51259;BME280;37327;54.254;18.504;2024-03-02T06:13:38;100548.17;;;6.36;100.00
51259;BME280;37327;54.254;18.504;2024-03-02T06:17:00;100545.64;;;6.34;100.00
51259;BME280;37327;54.254;18.504;2024-03-02T06:20:23;100544.81;;;6.33;100.00
51259;BME280;37327;54.254;18.504;2024-03-02T06:24:10;100551.01;;;6.34;100.00
51259;BME280;37327;54.254;18.504;2024-03-02T06:27:32;100549.34;;;6.33;100.00
51259;BME280;37327;54.254;18.504;2024-03-02T06:30:54;100550.03;;;6.35;100.00
51259;BME280;37327;54.254;18.504;2024-03-02T06:34:41;100541.11;;;6.35;100.00
51259;BME280;37327;54.254;18.504;2024-03-02T06:38:04;100536.46;;;6.37;100.00
51259;BME280;37327;54.254;18.504;2024-03-02T06:41:27;100549.55;;;6.40;100.00
51259;BME280;37327;54.254;18.504;2024-03-02T06:45:14;100541.21;;;6.43;100.00
51259;BME280;37327;54.254;18.504;2024-03-02T06:48:36;100547.27;;;6.45;100.00
51259;BME280;37327;54.254;18.504;2024-03-02T06:51:58;100545.41;;;6.45;100.00
51259;BME280;37327;54.254;18.504;2024-03-02T06:55:48;100539.58;;;6.50;100.00
51259;BME280;37327;54.254;18.504;2024-03-02T06:59:10;100546.02;;;6.57;100.00
51259;BME280;37327;54.254;18.504;2024-03-02T07:02:32;100541.20;;;6.61;100.00
51259;BME280;37327;54.254;18.504;2024-03-02T07:06:19;100541.05;;;6.62;100.00
51259;BME280;37327;54.254;18.504;2024-03-02T07:09:41;100538.87;;;6.66;100.00
51259;BME280;37327;54.254;18.504;2024-03-02T07:13:03;100545.83;;;6.77;100.00
51259;BME280;37327;54.254;18.504;2024-03-02T07:16:50;100546.57;;;6.87;100.00
51259;BME280;37327;54.254;18.504;2024-03-02T07:20:13;100550.03;;;6.97;100.00
51259;BME280;37327;54.254;18.504;2024-03-02T07:23:35;100550.08;;;7.05;100.00
51259;BME280;37327;54.254;18.504;2024-03-02T07:27:22;100545.69;;;7.04;100.00
51259;BME280;37327;54.254;18.504;2024-03-02T07:30:45;100559.12;;;7.04;100.00
51259;BME280;37327;54.254;18.504;2024-03-02T07:34:06;100556.13;;;7.07;100.00
51259;BME280;37327;54.254;18.504;2024-03-02T07:37:54;100556.58;;;7.03;100.00
51259;BME280;37327;54.254;18.504;2024-03-02T07:41:17;100573.55;;;7.03;100.00
51259;BME280;37327;54.254;18.504;2024-03-02T07:44:39;100583.22;;;6.96;100.00
51259;BME280;37327;54.254;18.504;2024-03-02T08:11:38;100589.96;;;7.00;100.00
51259;BME280;37327;54.254;18.504;2024-03-02T08:15:26;100594.02;;;7.04;100.00
51259;BME280;37327;54.254;18.504;2024-03-02T08:26:22;100570.92;;;7.11;100.00
51259;BME280;37327;54.254;18.504;2024-03-02T08:41:25;100583.34;;;7.39;100.00
51259;BME280;37327;54.254;18.504;2024-03-02T08:45:27;100592.23;;;7.39;100.00
51259;BME280;37327;54.254;18.504;2024-03-02T08:56:40;100578.64;;;7.41;100.00
51259;BME280;37327;54.254;18.504;2024-03-02T09:00:55;100587.35;;;7.35;100.00
51259;BME280;37327;54.254;18.504;2024-03-02T09:04:21;100586.17;;;7.37;100.00
51259;BME280;37327;54.254;18.504;2024-03-02T09:08:08;100593.25;;;7.38;100.00
51259;BME280;37327;54.254;18.504;2024-03-02T09:11:35;100592.49;;;7.28;100.00
51259;BME280;37327;54.254;18.504;2024-03-02T09:19:20;100587.98;;;7.28;100.00
51259;BME280;37327;54.254;18.504;2024-03-02T09:23:10;100589.35;;;7.33;100.00
51259;BME280;37327;54.254;18.504;2024-03-02T09:26:33;100600.93;;;7.33;100.00
51259;BME280;37327;54.254;18.504;2024-03-02T09:29:56;100607.97;;;7.34;100.00
51259;BME280;37327;54.254;18.504;2024-03-02T09:33:45;100604.60;;;7.32;100.00
51259;BME280;37327;54.254;18.504;2024-03-02T09:37:10;100608.98;;;7.33;100.00
51259;BME280;37327;54.254;18.504;2024-03-02T09:40:33;100614.66;;;7.30;100.00
51259;BME280;37327;54.254;18.504;2024-03-02T09:44:26;100624.71;;;7.28;100.00
51259;BME280;37327;54.254;18.504;2024-03-02T09:47:47;100627.98;;;7.40;100.00
51259;BME280;37327;54.254;18.504;2024-03-02T09:51:13;100631.58;;;7.48;100.00
51259;BME280;37327;54.254;18.504;2024-03-02T09:55:03;100627.57;;;7.53;100.00
51259;BME280;37327;54.254;18.504;2024-03-02T09:58:30;100627.24;;;7.56;100.00
51259;BME280;37327;54.254;18.504;2024-03-02T10:05:49;100624.81;;;7.70;100.00
51259;BME280;37327;54.254;18.504;2024-03-02T10:09:13;100620.34;;;7.79;100.00
51259;BME280;37327;54.254;18.504;2024-03-02T10:12:36;100627.06;;;7.83;100.00
51259;BME280;37327;54.254;18.504;2024-03-02T10:16:24;100628.98;;;7.99;100.00
51259;BME280;37327;54.254;18.504;2024-03-02T10:19:46;100615.40;;;8.09;100.00
51259;BME280;37327;54.254;18.504;2024-03-02T10:23:13;100629.09;;;8.32;100.00
51259;BME280;37327;54.254;18.504;2024-03-02T10:27:06;100619.22;;;8.49;100.00
51259;BME280;37327;54.254;18.504;2024-03-02T10:30:27;100623.30;;;8.61;100.00
51259;BME280;37327;54.254;18.504;2024-03-02T10:33:50;100620.26;;;8.73;100.00
51259;BME280;37327;54.254;18.504;2024-03-02T10:37:37;100622.28;;;8.79;100.00
51259;BME280;37327;54.254;18.504;2024-03-02T10:41:00;100622.63;;;8.84;100.00
51259;BME280;37327;54.254;18.504;2024-03-02T10:44:25;100619.61;;;8.95;100.00
51259;BME280;37327;54.254;18.504;2024-03-02T10:48:13;100614.57;;;9.00;100.00
51259;BME280;37327;54.254;18.504;2024-03-02T10:51:36;100620.94;;;9.07;100.00
51259;BME280;37327;54.254;18.504;2024-03-02T10:54:59;100612.68;;;9.17;100.00
51259;BME280;37327;54.254;18.504;2024-03-02T10:58:48;100613.86;;;9.23;99.60
51259;BME280;37327;54.254;18.504;2024-03-02T11:02:15;100608.95;;;9.35;99.68
51259;BME280;37327;54.254;18.504;2024-03-02T11:05:44;100614.16;;;9.44;99.81
51259;BME280;37327;54.254;18.504;2024-03-02T11:09:37;100601.19;;;9.48;98.89
51259;BME280;37327;54.254;18.504;2024-03-02T11:13:05;100595.27;;;9.53;98.19
51259;BME280;37327;54.254;18.504;2024-03-02T11:16:57;100596.80;;;9.55;97.40
51259;BME280;37327;54.254;18.504;2024-03-02T11:20:21;100597.97;;;9.61;97.45
51259;BME280;37327;54.254;18.504;2024-03-02T11:23:43;100594.04;;;9.72;97.46
51259;BME280;37327;54.254;18.504;2024-03-02T11:31:00;100582.63;;;10.01;96.57
51259;BME280;37327;54.254;18.504;2024-03-02T11:38:17;100588.36;;;9.98;93.70
51259;BME280;37327;54.254;18.504;2024-03-02T11:41:42;100580.31;;;9.89;93.31
51259;BME280;37327;54.254;18.504;2024-03-02T11:45:04;100578.99;;;9.85;93.61
51259;BME280;37327;54.254;18.504;2024-03-02T11:48:54;100581.18;;;9.90;94.16
51259;BME280;37327;54.254;18.504;2024-03-02T11:52:17;100583.33;;;9.95;93.50
51259;BME280;37327;54.254;18.504;2024-03-02T11:55:42;100582.80;;;9.99;93.97
51259;BME280;37327;54.254;18.504;2024-03-02T11:59:33;100581.62;;;10.02;94.35
51259;BME280;37327;54.254;18.504;2024-03-02T12:03:03;100579.05;;;10.08;93.50
51259;BME280;37327;54.254;18.504;2024-03-02T12:07:02;100591.34;;;10.11;93.88
51259;BME280;37327;54.254;18.504;2024-03-02T12:10:24;100588.63;;;10.11;93.29
51259;BME280;37327;54.254;18.504;2024-03-02T12:17:47;100585.42;;;10.16;93.00
51259;BME280;37327;54.254;18.504;2024-03-02T12:21:09;100588.78;;;10.18;92.95
51259;BME280;37327;54.254;18.504;2024-03-02T12:24:34;100600.45;;;10.10;92.07
51259;BME280;37327;54.254;18.504;2024-03-02T12:28:27;100605.19;;;10.08;92.75
51259;BME280;37327;54.254;18.504;2024-03-02T12:32:05;100600.09;;;10.13;92.68
51259;BME280;37327;54.254;18.504;2024-03-02T12:48:20;100594.46;;;10.23;92.53
51259;BME280;37327;54.254;18.504;2024-03-02T12:51:43;100587.23;;;10.23;92.43
51259;BME280;37327;54.254;18.504;2024-03-02T12:55:09;100596.67;;;10.19;91.75
51259;BME280;37327;54.254;18.504;2024-03-02T12:58:59;100590.82;;;10.16;91.86
51259;BME280;37327;54.254;18.504;2024-03-02T13:02:27;100595.23;;;10.08;91.45
51259;BME280;37327;54.254;18.504;2024-03-02T13:05:52;100590.37;;;10.04;91.84
51259;BME280;37327;54.254;18.504;2024-03-02T13:09:41;100589.62;;;10.18;93.20
51259;BME280;37327;54.254;18.504;2024-03-02T13:13:05;100581.93;;;10.38;93.41
51259;BME280;37327;54.254;18.504;2024-03-02T13:16:29;100579.82;;;10.48;92.47
51259;BME280;37327;54.254;18.504;2024-03-02T13:20:17;100576.30;;;10.48;91.65
51259;BME280;37327;54.254;18.504;2024-03-02T13:23:46;100588.78;;;10.49;91.01
51259;BME280;37327;54.254;18.504;2024-03-02T13:27:08;100585.28;;;10.40;90.92
51259;BME280;37327;54.254;18.504;2024-03-02T13:30:55;100589.51;;;10.43;91.51
51259;BME280;37327;54.254;18.504;2024-03-02T13:34:17;100584.95;;;10.43;91.24
51259;BME280;37327;54.254;18.504;2024-03-02T13:37:39;100582.24;;;10.43;91.15
51259;BME280;37327;54.254;18.504;2024-03-02T13:41:26;100578.89;;;10.41;91.02
51259;BME280;37327;54.254;18.504;2024-03-02T13:44:49;100575.53;;;10.39;91.31
51259;BME280;37327;54.254;18.504;2024-03-02T13:48:13;100581.76;;;10.40;92.25
51259;BME280;37327;54.254;18.504;2024-03-02T13:52:08;100579.65;;;10.50;92.32
51259;BME280;37327;54.254;18.504;2024-03-02T13:55:34;100576.13;;;10.50;92.03
51259;BME280;37327;54.254;18.504;2024-03-02T13:59:24;100581.03;;;10.46;91.67
51259;BME280;37327;54.254;18.504;2024-03-02T14:02:48;100587.88;;;10.34;91.22
51259;BME280;37327;54.254;18.504;2024-03-02T14:06:13;100588.55;;;10.27;91.84
51259;BME280;37327;54.254;18.504;2024-03-02T14:10:00;100583.02;;;10.21;92.24
51259;BME280;37327;54.254;18.504;2024-03-02T14:13:22;100586.37;;;10.23;92.69
51259;BME280;37327;54.254;18.504;2024-03-02T16:47:05;100599.70;;;8.55;100.00
51259;BME280;37327;54.254;18.504;2024-03-02T16:50:55;100599.40;;;8.50;100.00
51259;BME280;37327;54.254;18.504;2024-03-02T16:54:27;100607.78;;;8.47;100.00
51259;BME280;37327;54.254;18.504;2024-03-02T16:58:17;100618.22;;;8.42;100.00
51259;BME280;37327;54.254;18.504;2024-03-02T17:01:41;100616.81;;;8.38;100.00
51259;BME280;37327;54.254;18.504;2024-03-02T17:35:59;100640.26;;;8.03;100.00
51259;BME280;37327;54.254;18.504;2024-03-02T17:39:21;100641.59;;;7.99;100.00
51259;BME280;37327;54.254;18.504;2024-03-02T17:43:09;100633.00;;;7.95;100.00
51259;BME280;37327;54.254;18.504;2024-03-02T17:46:33;100638.52;;;7.94;100.00
51259;BME280;37327;54.254;18.504;2024-03-02T17:49:55;100633.66;;;7.89;100.00
51259;BME280;37327;54.254;18.504;2024-03-02T17:53:44;100641.87;;;7.87;100.00
51259;BME280;37327;54.254;18.504;2024-03-02T17:57:06;100642.52;;;7.81;100.00
51259;BME280;37327;54.254;18.504;2024-03-02T18:00:28;100645.66;;;7.77;100.00
51259;BME280;37327;54.254;18.504;2024-03-02T18:04:16;100645.32;;;7.71;100.00
51259;BME280;37327;54.254;18.504;2024-03-02T18:07:38;100641.58;;;7.64;100.00
51259;BME280;37327;54.254;18.504;2024-03-02T18:11:00;100648.43;;;7.59;100.00
51259;BME280;37327;54.254;18.504;2024-03-02T18:14:48;100654.44;;;7.53;100.00
51259;BME280;37327;54.254;18.504;2024-03-02T18:18:13;100662.12;;;7.47;100.00
51259;BME280;37327;54.254;18.504;2024-03-02T18:21:35;100658.07;;;7.43;100.00
51259;BME280;37327;54.254;18.504;2024-03-02T18:25:23;100666.76;;;7.37;100.00
51259;BME280;37327;54.254;18.504;2024-03-02T18:28:45;100672.08;;;7.29;100.00
51259;BME280;37327;54.254;18.504;2024-03-02T18:32:07;100662.64;;;7.25;100.00
51259;BME280;37327;54.254;18.504;2024-03-02T18:35:55;100664.94;;;7.20;100.00
51259;BME280;37327;54.254;18.504;2024-03-02T18:39:17;100670.61;;;7.17;100.00
51259;BME280;37327;54.254;18.504;2024-03-02T18:42:39;100663.57;;;7.16;100.00
51259;BME280;37327;54.254;18.504;2024-03-02T18:46:27;100669.23;;;7.12;100.00
51259;BME280;37327;54.254;18.504;2024-03-02T18:49:49;100665.03;;;7.10;100.00
51259;BME280;37327;54.254;18.504;2024-03-02T18:53:12;100657.82;;;7.10;100.00
51259;BME280;37327;54.254;18.504;2024-03-02T18:57:00;100665.03;;;7.10;100.00
51259;BME280;37327;54.254;18.504;2024-03-02T19:00:23;100661.37;;;7.11;100.00
51259;BME280;37327;54.254;18.504;2024-03-02T19:03:44;100666.56;;;7.12;100.00
51259;BME280;37327;54.254;18.504;2024-03-02T19:07:32;100665.57;;;7.14;100.00
51259;BME280;37327;54.254;18.504;2024-03-02T19:10:54;100664.41;;;7.16;100.00
51259;BME280;37327;54.254;18.504;2024-03-02T19:14:15;100663.57;;;7.16;100.00
51259;BME280;37327;54.254;18.504;2024-03-02T19:18:03;100666.41;;;7.14;100.00
51259;BME280;37327;54.254;18.504;2024-03-02T19:21:25;100672.11;;;7.11;100.00
51259;BME280;37327;54.254;18.504;2024-03-02T19:24:47;100669.57;;;7.09;100.00
51259;BME280;37327;54.254;18.504;2024-03-02T19:28:34;100663.37;;;7.09;100.00
51259;BME280;37327;54.254;18.504;2024-03-02T19:31:57;100664.49;;;7.06;100.00
51259;BME280;37327;54.254;18.504;2024-03-02T19:35:19;100674.70;;;7.03;100.00
51259;BME280;37327;54.254;18.504;2024-03-02T19:39:06;100663.45;;;6.99;100.00
51259;BME280;37327;54.254;18.504;2024-03-02T19:42:32;100670.82;;;6.97;100.00
51259;BME280;37327;54.254;18.504;2024-03-02T19:45:56;100670.82;;;6.97;100.00
51259;BME280;37327;54.254;18.504;2024-03-02T19:49:44;100669.41;;;6.93;100.00
